createdAt,value
2022-08-07T00:02:46.377Z,24.13
2022-08-07T00:07:40.679Z,24.1
2022-08-07T00:12:31.191Z,24.08
2022-08-07T00:22:24.269Z,24.08
2022-08-07T00:27:09.239Z,24.04
2022-08-07T00:32:01.273Z,23.97
2022-08-07T00:36:53.708Z,23.9
2022-08-07T00:41:53.371Z,23.86
2022-08-07T00:46:38.925Z,23.97
2022-08-07T00:51:56.834Z,23.86
2022-08-07T00:56:30.092Z,23.79
2022-08-07T01:01:16.796Z,23.77
2022-08-07T01:06:08.965Z,23.73
2022-08-07T01:11:10.753Z,23.74
2022-08-07T01:16:00.768Z,23.72
2022-08-07T01:20:57.646Z,23.67
2022-08-07T01:25:40.667Z,23.62
2022-08-07T01:30:31.127Z,23.63
2022-08-07T01:35:24.319Z,23.61
2022-08-07T01:40:16.104Z,23.53
2022-08-07T01:45:09.620Z,23.55
2022-08-07T01:50:00.889Z,23.57
2022-08-07T01:54:53.694Z,23.56
2022-08-07T01:59:46.064Z,23.45
2022-08-07T02:04:38.748Z,23.45
2022-08-07T02:09:33.657Z,23.41
2022-08-07T02:14:36.433Z,23.37
2022-08-07T02:20:05.984Z,23.29
2022-08-07T02:24:09.235Z,23.34
2022-08-07T02:29:01.446Z,23.27
2022-08-07T02:34:01.981Z,23.27
2022-08-07T02:38:50.727Z,23.24
2022-08-07T02:43:39.530Z,23.21
2022-08-07T02:48:31.288Z,23.2
2022-08-07T02:53:23.642Z,23.19
2022-08-07T02:58:16.352Z,23.14
2022-08-07T03:03:08.556Z,23.1
2022-08-07T03:08:05.520Z,23.09
2022-08-07T03:12:53.865Z,23.11
2022-08-07T03:17:52.776Z,23.05
2022-08-07T03:22:39.178Z,23.01
2022-08-07T03:27:42.235Z,22.97
2022-08-07T03:32:24.096Z,22.95
2022-08-07T03:37:16.555Z,22.91
2022-08-07T03:42:09.018Z,22.88
2022-08-07T03:47:11.676Z,22.89
2022-08-07T03:51:55.089Z,22.85
2022-08-07T03:56:59.737Z,22.84
2022-08-07T04:01:38.373Z,22.8
2022-08-07T04:06:36.452Z,22.79
2022-08-07T04:11:28.924Z,22.76
2022-08-07T04:16:15.900Z,22.7
2022-08-07T04:21:08.139Z,22.7
2022-08-07T04:26:00.675Z,22.68
2022-08-07T04:30:55.662Z,22.67
2022-08-07T04:35:50.301Z,22.67
2022-08-07T04:40:43.988Z,22.65
2022-08-07T04:45:44.674Z,22.1
2022-08-07T04:50:22.243Z,21.54
2022-08-07T04:55:15.127Z,21.24
2022-08-07T05:00:08.297Z,21.27
2022-08-07T05:04:58.713Z,21
2022-08-07T05:09:51.472Z,21.19
2022-08-07T05:14:50.733Z,21.03
2022-08-07T05:19:44.350Z,20.17
2022-08-07T05:24:30.322Z,20.4
2022-08-07T05:29:20.951Z,20.54
2022-08-07T05:34:13.064Z,20.11
2022-08-07T05:39:08.859Z,19.46
2022-08-07T05:44:08.879Z,20.1
2022-08-07T05:48:57.358Z,18.86
2022-08-07T05:54:09.061Z,18.16
2022-08-07T05:58:36.480Z,19.31
2022-08-07T06:08:31.012Z,17.53
2022-08-07T06:13:15.611Z,19.04
2022-08-07T06:18:07.863Z,18.48
2022-08-07T06:28:00.816Z,18.84
2022-08-07T06:32:44.860Z,18.85
2022-08-07T06:37:43.795Z,18.17
2022-08-07T06:42:33.228Z,18.72
2022-08-07T06:47:21.295Z,19.09
2022-08-07T06:52:13.532Z,19.25
2022-08-07T06:57:06.294Z,19.01
2022-08-07T07:01:58.424Z,19.12
2022-08-07T07:06:57.357Z,19.5
2022-08-07T07:16:31.671Z,19.53
2022-08-07T07:21:26.898Z,19.96
2022-08-07T07:26:33.609Z,19.68
2022-08-07T07:31:10.287Z,19.78
2022-08-07T07:36:05.197Z,19.75
2022-08-07T07:40:58.819Z,20.15
2022-08-07T07:46:36.200Z,20.17
2022-08-07T07:50:40.609Z,20.47
2022-08-07T07:55:37.237Z,20.54
2022-08-07T08:00:29.284Z,20.81
2022-08-07T08:05:18.338Z,21.07
2022-08-07T08:10:14.726Z,21.08
2022-08-07T08:15:06.954Z,21.32
2022-08-07T08:20:16.454Z,21.39
2022-08-07T08:24:51.342Z,21.52
2022-08-07T08:29:45.285Z,21.71
2022-08-07T08:34:34.981Z,21.73
2022-08-07T08:39:38.867Z,21.95
2022-08-07T08:44:19.839Z,22.08
2022-08-07T08:49:12.654Z,22.19
2022-08-07T08:54:05.208Z,22.31
2022-08-07T08:58:57.928Z,22.34
2022-08-07T09:03:52.664Z,22.39
2022-08-07T09:08:42.793Z,22.43
2022-08-07T09:13:37.232Z,22.47
2022-08-07T09:18:27.893Z,22.53
2022-08-07T09:24:28.203Z,22.57
2022-08-07T09:30:02.582Z,22.6
2022-08-07T09:33:16.337Z,22.64
2022-08-07T09:37:57.809Z,22.67
2022-08-07T09:42:51.347Z,22.71
2022-08-07T09:47:58.280Z,22.74
2022-08-07T09:52:35.977Z,22.78
2022-08-07T09:57:28.544Z,22.82
2022-08-07T10:02:20.910Z,22.83
2022-08-07T10:07:24.234Z,22.86
2022-08-07T10:12:11.944Z,22.93
2022-08-07T10:16:59.457Z,22.97
2022-08-07T10:22:15.277Z,23.01
2022-08-07T10:26:44.342Z,23.06
2022-08-07T10:31:38.864Z,23.09
2022-08-07T10:36:30.179Z,23.12
2022-08-07T10:41:46.211Z,23.13
2022-08-07T10:46:15.595Z,23.19
2022-08-07T10:51:16.247Z,23.22
2022-08-07T10:56:02.337Z,23.26
2022-08-07T11:00:56.170Z,23.3
2022-08-07T11:05:49.346Z,23.33
2022-08-07T11:10:39.492Z,23.39
2022-08-07T11:15:32.273Z,23.44
2022-08-07T11:20:24.955Z,23.46
2022-08-07T11:25:17.231Z,23.52
2022-08-07T11:30:10.261Z,23.54
2022-08-07T11:35:02.490Z,23.56
2022-08-07T11:40:00.829Z,23.64
2022-08-07T11:44:52.182Z,23.68
2022-08-07T11:49:50.945Z,23.7
2022-08-07T11:54:32.813Z,23.74
2022-08-07T12:00:08.451Z,23.79
2022-08-07T12:04:17.782Z,23.84
2022-08-07T12:09:11.532Z,23.88
2022-08-07T12:14:02.726Z,23.89
2022-08-07T12:18:55.359Z,23.96
2022-08-07T12:24:06.534Z,23.99
2022-08-07T12:28:45.102Z,24.05
2022-08-07T12:33:56.757Z,24.1
2022-08-07T12:38:30.663Z,24.14
2022-08-07T12:44:01.625Z,24.19
2022-08-07T12:48:13.277Z,24.24
2022-08-07T12:53:05.027Z,24.3
2022-08-07T12:58:00.587Z,24.36
2022-08-07T13:02:49.526Z,24.43
2022-08-07T13:08:13.180Z,24.49
2022-08-07T13:12:33.576Z,24.56
2022-08-07T13:17:34.778Z,24.59
2022-08-07T13:22:19.631Z,24.62
2022-08-07T13:27:12.716Z,24.62
2022-08-07T13:32:31.485Z,24.62
2022-08-07T13:36:56.643Z,24.62
2022-08-07T13:41:49.148Z,24.64
2022-08-07T13:46:49.126Z,24.67
2022-08-07T13:52:04.591Z,24.68
2022-08-07T13:56:35.202Z,24.71
2022-08-07T14:01:20.529Z,24.72
2022-08-07T14:11:14.560Z,24.76
2022-08-07T14:15:57.193Z,24.77
2022-08-07T14:20:54.469Z,24.79
2022-08-07T14:25:46.124Z,24.8
2022-08-07T14:30:37.029Z,24.83
2022-08-07T14:35:43.557Z,24.85
2022-08-07T14:40:25.900Z,24.86
2022-08-07T14:45:20.794Z,24.88
2022-08-07T14:50:06.559Z,24.91
2022-08-07T14:54:59.072Z,24.93
2022-08-07T15:04:53.055Z,25.01
2022-08-07T15:09:58.681Z,25.05
2022-08-07T15:19:21.690Z,25.09
2022-08-07T15:25:03.574Z,25.12
2022-08-07T15:30:04.128Z,25.14
2022-08-07T15:33:59.399Z,25.16
2022-08-07T15:38:58.807Z,25.17
2022-08-07T15:43:53.947Z,25.18
2022-08-07T15:48:37.896Z,25.23
2022-08-07T15:53:42.292Z,25.25
2022-08-07T15:58:23.634Z,25.28
2022-08-07T16:03:21.070Z,25.32
2022-08-07T16:08:29.450Z,25.33
2022-08-07T16:13:04.914Z,25.36
2022-08-07T16:18:01.005Z,25.38
2022-08-07T16:22:54.706Z,25.41
2022-08-07T16:27:41.431Z,25.41
2022-08-07T16:32:33.317Z,25.44
2022-08-07T16:38:03.285Z,25.43
2022-08-07T16:42:17.464Z,25.44
2022-08-07T16:47:18.732Z,25.45
2022-08-07T16:52:18.762Z,25.44
2022-08-07T16:56:55.650Z,25.45
2022-08-07T17:01:48.382Z,25.46
2022-08-07T17:06:44.850Z,25.44
2022-08-07T17:12:02.159Z,25.45
2022-08-07T17:16:26.305Z,25.4
2022-08-07T17:21:22.889Z,25.53
2022-08-07T17:26:23.104Z,25.48
2022-08-07T17:31:15.841Z,25.51
2022-08-07T17:35:56.897Z,25.47
2022-08-07T17:40:50.543Z,25.51
2022-08-07T17:45:42.291Z,25.52
2022-08-07T17:50:34.788Z,25.6
2022-08-07T17:55:54.760Z,25.63
2022-08-07T18:00:33.475Z,25.75
2022-08-07T18:05:21.099Z,25.77
2022-08-07T18:10:10.136Z,25.75
2022-08-07T18:14:57.374Z,25.72
2022-08-07T18:21:04.757Z,25.72
2022-08-07T18:24:42.507Z,25.67
2022-08-07T18:30:04.842Z,25.7
2022-08-07T18:34:37.305Z,25.7
2022-08-07T18:40:06.291Z,25.65
2022-08-07T18:44:13.098Z,25.63
2022-08-07T18:50:06.155Z,25.57
2022-08-07T18:53:58.209Z,25.54
2022-08-07T18:58:51.553Z,25.5
2022-08-07T19:08:36.430Z,25.5
2022-08-07T19:18:34.345Z,25.45
2022-08-07T19:23:18.051Z,25.43
2022-08-07T19:28:31.471Z,25.35
2022-08-07T19:32:59.519Z,25.4
2022-08-07T19:37:55.859Z,25.34
2022-08-07T19:42:44.415Z,25.31
2022-08-07T19:47:37.357Z,25.27
2022-08-07T19:52:29.660Z,25.31
2022-08-07T19:57:51.129Z,25.26
2022-08-07T20:02:15.681Z,25.21
2022-08-07T20:07:09.009Z,25.15
2022-08-07T20:12:01.735Z,25.15
2022-08-07T20:16:54.302Z,25.14
2022-08-07T20:21:47.104Z,25.14
2022-08-07T20:26:38.815Z,25.13
2022-08-07T20:31:30.222Z,25.09
2022-08-07T20:36:22.952Z,25.11
2022-08-07T20:41:15.540Z,25.08
2022-08-07T20:46:25.565Z,25.02
2022-08-07T20:51:00.735Z,25.05
2022-08-07T20:55:53.330Z,25.03
2022-08-07T21:00:45.868Z,25
2022-08-07T21:05:43.178Z,24.99
2022-08-07T21:10:31.532Z,24.99
2022-08-07T21:15:47.462Z,24.97
2022-08-07T21:20:19.036Z,24.92
2022-08-07T21:25:11.878Z,24.91
2022-08-07T21:30:01.412Z,24.92
2022-08-07T21:34:53.764Z,24.92
2022-08-07T21:39:51.628Z,24.9
2022-08-07T21:44:38.905Z,24.88
2022-08-07T21:49:40.499Z,24.89
2022-08-07T21:54:24.226Z,24.87
2022-08-07T21:59:17.113Z,24.87
2022-08-07T22:04:09.606Z,24.86
2022-08-07T22:09:02.240Z,24.83
2022-08-07T22:13:55.287Z,24.83
2022-08-07T22:18:47.411Z,24.82
2022-08-07T22:23:40.360Z,24.8
2022-08-07T22:28:32.712Z,24.8
2022-08-07T22:33:52.443Z,24.77
2022-08-07T22:38:18.618Z,24.73
2022-08-07T22:43:10.737Z,24.75
2022-08-07T22:48:03.158Z,24.74
2022-08-07T22:52:55.968Z,24.72
2022-08-07T22:57:48.334Z,24.7
2022-08-07T23:02:40.973Z,24.7
2022-08-07T23:07:40.557Z,24.67
2022-08-07T23:12:32.955Z,24.67
2022-08-07T23:17:18.987Z,24.67
2022-08-07T23:22:10.913Z,24.63
2022-08-07T23:27:03.457Z,24.63
2022-08-07T23:32:50.073Z,24.6
2022-08-07T23:36:54.691Z,24.58
2022-08-07T23:41:47.362Z,24.57
2022-08-07T23:46:33.915Z,24.57
2022-08-07T23:52:57.039Z,24.55
2022-08-07T23:56:20.707Z,24.56
